Wiggins, CO (80654)

7:07 AM MDT on August 25, 2016 (GMT -0600)
CODOT | | Change Station

Elev 4498 ft 40.08 °N, 104.00 °W | Updated 4 hours ago

Clear
Clear
51 °F
Feels Like 51 °F
N
5
Wind Variable Wind from West
Gusts 7.0 mph

Today
High -- | Low -- °F
--% Chance of Precip.
Yesterday
High -- | Low -- °F
Precip. -- in
Pressure 30.25 in
Visibility 10.0 miles
Clouds Clear
Dew Point 48 °F
Humidity 89%
Rainfall in
Snow Depth Not available.
6:17 AM 7:37 PM
Last Quarter, 46% visible
METAR KFMM 251255Z AUTO 04006KT 10SM CLR 08/04 A3025 RMK AO2 T00820037
Pressure 30.25 in
Visibility 10.0 miles
Clouds Clear
Dew Point 48 °F
Humidity 89%
Rainfall in
Snow Depth Not available.
6:17 AM 7:37 PM
Last Quarter, 46% visible
METAR KFMM 251255Z AUTO 04006KT 10SM CLR 08/04 A3025 RMK AO2 T00820037

10-Day Weather Forecast

Almanac

Astronomy

Aug. 25, 2016 Rise Set
Actual Time
Civil Twilight
Nautical Twilight
Astronomical Twilight
Moon
Length of Visible Light
Length of Day
Tomorrow will be .
, % of the Moon is Illuminated

Today's Extremes

State Highs State Lows

Community

WunderPhotos

Upload Photos

1,934,837 photos uploaded!

WunderBlog® & News

Nearby

Air Quality

  Air Quality AQ Index Pollutant
Not available.

Snow Depth

Station Depth Elevation

Earthquake Activity

City Distance Mag. Time & Date
Minimum magnitude displayed is 2.5.

Coastal Water Temperatures

Place Temperature

Stations

Nearby Weather Stations

Station Location Temp. Windchill Dew Point Humidity Wind Precip. Elev Updated Type
                   

Watches & Warnings

There are currently no watches in effect.